Tufão CEMPAKA 2021: trajetória, intensidade e histórico
25/07/2021, 00:00:00
17/07/2021, 00:00:00 – 25/07/2021, 00:00:00
Trajetória histórica
Acompanhe a evolução e o deslocamento de Tufão CEMPAKA em 2021, com a trajetória completa registrada, ventos máximos sustentados de 80 nós, pressão central mínima e cronologia detalhada.
| Data | Hora | Tipo | Ventokm/h | PressãohPa |
|---|---|---|---|---|
| 25/07 | 00:00 | TDDepressão tropical | -- | 998 |
| 24/07 | 21:00 | TDDepressão tropical | -- | 998 |
| 24/07 | 18:00 | TDDepressão tropical | -- | 998 |
| 24/07 | 15:00 | TDDepressão tropical | -- | 997 |
| 24/07 | 12:00 | TDDepressão tropical | 55 | 996 |
| 24/07 | 09:00 | DBPerturbação tropical | 55 | 995 |
| 24/07 | 06:00 | TDDepressão tropical | 30 | 999 |
| 24/07 | 03:00 | DBPerturbação tropical | 35 | 1002 |
| 24/07 | 00:00 | TDDepressão tropical | 35 | 1005 |
| 23/07 | 21:00 | DBPerturbação tropical | 35 | 1004 |
| 23/07 | 18:00 | TDDepressão tropical | 35 | 1003 |
| 23/07 | 15:00 | DBPerturbação tropical | 35 | 1002 |
| 23/07 | 12:00 | TDDepressão tropical | 35 | 1000 |
| 23/07 | 09:00 | DBPerturbação tropical | 35 | 1001 |
| 23/07 | 06:00 | TDDepressão tropical | 35 | 1001 |
| 23/07 | 03:00 | DBPerturbação tropical | 35 | 1001 |
| 23/07 | 00:00 | TDDepressão tropical | 35 | 1001 |
| 22/07 | 21:00 | DBPerturbação tropical | 35 | 1002 |
| 22/07 | 18:00 | TDDepressão tropical | 35 | 1003 |
| 22/07 | 15:00 | TDDepressão tropical | 45 | 1002 |
| 22/07 | 12:00 | TDDepressão tropical | 45 | 1000 |
| 22/07 | 09:00 | TDDepressão tropical | 45 | 1000 |
| 22/07 | 06:00 | TDDepressão tropical | 45 | 1000 |
| 22/07 | 03:00 | TDDepressão tropical | 45 | 1000 |
| 22/07 | 00:00 | TDDepressão tropical | 45 | 1000 |
| 21/07 | 21:00 | TDDepressão tropical | 45 | 1000 |
| 21/07 | 18:00 | TSTempestade tropical | 45 | 999 |
| 21/07 | 15:00 | TDDepressão tropical | 45 | 999 |
| 21/07 | 12:00 | TSTempestade tropical | 45 | 999 |
| 21/07 | 09:00 | TDDepressão tropical | 50 | 998 |
| 21/07 | 06:00 | TSTempestade tropical | 55 | 996 |
| 21/07 | 03:00 | TSTempestade tropical | 60 | 997 |
| 21/07 | 00:00 | TSTempestade tropical | 65 | 998 |
| 20/07 | 21:00 | TSTempestade tropical | 85 | 991 |
| 20/07 | 18:00 | STSTempestade tropical severa | 100 | 984 |
| 20/07 | 15:00 | TTufão | 120 | 977 |
| 20/07 | 12:00 | STSTempestade tropical severa | 140 | 970 |
| 20/07 | 09:00 | TTufão | 145 | 968 |
| 20/07 | 06:00 | TTufão | 150 | 965 |
| 20/07 | 03:00 | TTufão | 135 | 971 |
| 20/07 | 00:00 | TTufão | 120 | 977 |
| 19/07 | 21:00 | TTufão | 120 | 978 |
| 19/07 | 18:00 | TTufão | 120 | 978 |
| 19/07 | 15:00 | TSTempestade tropical | 110 | 982 |
| 19/07 | 12:00 | STSTempestade tropical severa | 100 | 985 |
| 19/07 | 09:00 | TSTempestade tropical | 95 | 988 |
| 19/07 | 06:00 | STSTempestade tropical severa | 85 | 991 |
| 19/07 | 03:00 | TSTempestade tropical | 80 | 993 |
| 19/07 | 00:00 | TSTempestade tropical | 75 | 995 |
| 18/07 | 21:00 | TSTempestade tropical | 70 | 997 |
| 18/07 | 18:00 | TSTempestade tropical | 65 | 998 |
| 18/07 | 15:00 | TDDepressão tropical | 60 | 998 |
| 18/07 | 12:00 | TDDepressão tropical | 55 | 998 |
| 18/07 | 09:00 | TDDepressão tropical | 50 | 999 |
| 18/07 | 06:00 | TDDepressão tropical | 45 | 1000 |
| 18/07 | 03:00 | DBPerturbação tropical | 45 | 1001 |
| 18/07 | 00:00 | TDDepressão tropical | 35 | 1001 |
| 17/07 | 21:00 | DBPerturbação tropical | 35 | 1003 |
| 17/07 | 18:00 | TDDepressão tropical | 30 | 1004 |
| 17/07 | 15:00 | DBPerturbação tropical | 30 | 1003 |
| 17/07 | 12:00 | TDDepressão tropical | 30 | 1002 |
| 17/07 | 09:00 | DBPerturbação tropical | 30 | 1002 |
| 17/07 | 06:00 | TDDepressão tropical | 30 | 1002 |
| 17/07 | 03:00 | TDDepressão tropical | -- | 1003 |
| 17/07 | 00:00 | TDDepressão tropical | -- | 1004 |
Cronologia de localização
65 Registos de localizaçãoTambém pode encontrar estas ferramentas úteis
A localização, a extensão e o estado de cada evento podem ser atualizados em momentos diferentes consoante a fonte. Confirme decisões importantes junto das autoridades oficiais de emergência.
Os registos de eventos provêm da NASA EONET e são complementados por registos de deslizamentos de terra do USGS FDSN. As análises e previsões de tempestades podem utilizar a NOAA NHC ou o JTWC, com registos históricos ATCF da UCAR/NCAR quando disponíveis. As imagens de satélite provêm da NASA Worldview/GIBS (GOES e Himawari) ou da EUMETSAT Meteosat, consoante a cobertura do mapa.
Fontes: NASA EONET · USGS · NOAA NHC · JTWC · UCAR/NCAR ATCF · NASA Worldview/GIBS · EUMETSAT Meteosat · OpenStreetMap contributors